sensor_id;sensor_type;location;lat;lon;timestamp;temperature;humidity
31133;DHT22;17779;50.942;4.026;2023-04-03T00:01:12;2.70;99.90
31133;DHT22;17779;50.942;4.026;2023-04-03T00:03:38;2.60;99.90
31133;DHT22;17779;50.942;4.026;2023-04-03T00:06:04;2.60;99.90
31133;DHT22;17779;50.942;4.026;2023-04-03T00:08:32;2.50;99.90
31133;DHT22;17779;50.942;4.026;2023-04-03T00:10:58;2.60;99.90
31133;DHT22;17779;50.942;4.026;2023-04-03T00:13:24;3.00;99.90
31133;DHT22;17779;50.942;4.026;2023-04-03T00:15:51;3.30;99.90
31133;DHT22;17779;50.942;4.026;2023-04-03T00:18:18;3.40;99.90
31133;DHT22;17779;50.942;4.026;2023-04-03T00:20:43;3.40;99.90
31133;DHT22;17779;50.942;4.026;2023-04-03T00:23:09;3.10;99.90
31133;DHT22;17779;50.942;4.026;2023-04-03T00:25:35;2.90;99.90
31133;DHT22;17779;50.942;4.026;2023-04-03T00:28:02;2.70;99.90
31133;DHT22;17779;50.942;4.026;2023-04-03T00:30:28;2.50;99.90
31133;DHT22;17779;50.942;4.026;2023-04-03T00:32:54;2.40;99.90
31133;DHT22;17779;50.942;4.026;2023-04-03T00:35:21;2.30;99.90
31133;DHT22;17779;50.942;4.026;2023-04-03T00:37:48;2.20;99.90
31133;DHT22;17779;50.942;4.026;2023-04-03T00:40:15;2.20;99.90
31133;DHT22;17779;50.942;4.026;2023-04-03T00:42:42;2.20;99.90
31133;DHT22;17779;50.942;4.026;2023-04-03T00:45:22;2.30;99.90
31133;DHT22;17779;50.942;4.026;2023-04-03T00:47:48;2.30;99.90
31133;DHT22;17779;50.942;4.026;2023-04-03T00:50:14;2.30;99.90
31133;DHT22;17779;50.942;4.026;2023-04-03T00:52:40;2.40;99.90
31133;DHT22;17779;50.942;4.026;2023-04-03T00:55:08;2.50;99.90
31133;DHT22;17779;50.942;4.026;2023-04-03T00:57:34;2.40;99.90
31133;DHT22;17779;50.942;4.026;2023-04-03T01:00:03;2.30;99.90
31133;DHT22;17779;50.942;4.026;2023-04-03T01:02:30;2.30;99.90
31133;DHT22;17779;50.942;4.026;2023-04-03T01:04:56;2.20;99.90
31133;DHT22;17779;50.942;4.026;2023-04-03T01:07:24;2.30;99.90
31133;DHT22;17779;50.942;4.026;2023-04-03T01:09:56;2.40;99.90
31133;DHT22;17779;50.942;4.026;2023-04-03T01:12:31;2.40;99.90
31133;DHT22;17779;50.942;4.026;2023-04-03T01:14:59;2.50;99.90
31133;DHT22;17779;50.942;4.026;2023-04-03T01:17:40;2.70;99.90
31133;DHT22;17779;50.942;4.026;2023-04-03T01:25:38;2.90;99.90
31133;DHT22;17779;50.942;4.026;2023-04-03T01:28:07;3.00;99.90
31133;DHT22;17779;50.942;4.026;2023-04-03T01:30:39;3.00;99.90
31133;DHT22;17779;50.942;4.026;2023-04-03T01:33:06;3.10;99.90
31133;DHT22;17779;50.942;4.026;2023-04-03T01:35:32;3.20;99.90
31133;DHT22;17779;50.942;4.026;2023-04-03T01:37:58;3.30;99.90
31133;DHT22;17779;50.942;4.026;2023-04-03T01:40:24;3.20;99.90
31133;DHT22;17779;50.942;4.026;2023-04-03T01:42:50;3.00;99.90
31133;DHT22;17779;50.942;4.026;2023-04-03T01:45:17;2.90;99.90
31133;DHT22;17779;50.942;4.026;2023-04-03T01:47:42;2.90;99.90
31133;DHT22;17779;50.942;4.026;2023-04-03T01:50:08;2.90;99.90
31133;DHT22;17779;50.942;4.026;2023-04-03T01:52:34;2.90;99.90
31133;DHT22;17779;50.942;4.026;2023-04-03T01:55:00;3.00;99.90
31133;DHT22;17779;50.942;4.026;2023-04-03T01:57:26;2.80;99.90
31133;DHT22;17779;50.942;4.026;2023-04-03T01:59:51;2.50;99.90
31133;DHT22;17779;50.942;4.026;2023-04-03T02:02:17;2.40;99.90
31133;DHT22;17779;50.942;4.026;2023-04-03T02:04:44;2.30;99.90
31133;DHT22;17779;50.942;4.026;2023-04-03T02:07:10;2.20;99.90
31133;DHT22;17779;50.942;4.026;2023-04-03T02:09:36;2.30;99.90
31133;DHT22;17779;50.942;4.026;2023-04-03T02:12:02;2.30;99.90
31133;DHT22;17779;50.942;4.026;2023-04-03T02:14:27;2.50;99.90
31133;DHT22;17779;50.942;4.026;2023-04-03T02:16:53;2.70;99.90
31133;DHT22;17779;50.942;4.026;2023-04-03T02:19:19;2.90;99.90
31133;DHT22;17779;50.942;4.026;2023-04-03T02:21:44;2.80;99.90
31133;DHT22;17779;50.942;4.026;2023-04-03T02:24:10;2.70;99.90
31133;DHT22;17779;50.942;4.026;2023-04-03T02:26:36;2.80;99.90
31133;DHT22;17779;50.942;4.026;2023-04-03T02:29:02;2.90;99.90
31133;DHT22;17779;50.942;4.026;2023-04-03T02:31:28;3.00;99.90
31133;DHT22;17779;50.942;4.026;2023-04-03T02:33:53;3.00;99.90
31133;DHT22;17779;50.942;4.026;2023-04-03T02:36:19;3.00;99.90
31133;DHT22;17779;50.942;4.026;2023-04-03T02:38:45;3.10;99.90
31133;DHT22;17779;50.942;4.026;2023-04-03T02:41:11;2.90;99.90
31133;DHT22;17779;50.942;4.026;2023-04-03T02:43:38;2.90;99.90
31133;DHT22;17779;50.942;4.026;2023-04-03T02:46:04;2.90;99.90
31133;DHT22;17779;50.942;4.026;2023-04-03T02:48:30;2.90;99.90
31133;DHT22;17779;50.942;4.026;2023-04-03T02:50:56;3.00;99.90
31133;DHT22;17779;50.942;4.026;2023-04-03T02:53:22;3.00;99.90
31133;DHT22;17779;50.942;4.026;2023-04-03T02:55:48;2.90;99.90
31133;DHT22;17779;50.942;4.026;2023-04-03T02:58:14;2.80;99.90
31133;DHT22;17779;50.942;4.026;2023-04-03T03:00:40;2.90;99.90
31133;DHT22;17779;50.942;4.026;2023-04-03T03:03:06;2.90;99.90
31133;DHT22;17779;50.942;4.026;2023-04-03T03:05:32;3.00;99.90
31133;DHT22;17779;50.942;4.026;2023-04-03T03:07:58;2.90;99.90
31133;DHT22;17779;50.942;4.026;2023-04-03T03:10:23;3.00;99.90
31133;DHT22;17779;50.942;4.026;2023-04-03T03:12:49;3.00;99.90
31133;DHT22;17779;50.942;4.026;2023-04-03T03:15:15;3.10;99.90
31133;DHT22;17779;50.942;4.026;2023-04-03T03:17:43;3.10;99.90
31133;DHT22;17779;50.942;4.026;2023-04-03T03:20:09;3.10;99.90
31133;DHT22;17779;50.942;4.026;2023-04-03T03:22:35;3.00;99.90
31133;DHT22;17779;50.942;4.026;2023-04-03T03:25:02;3.00;99.90
31133;DHT22;17779;50.942;4.026;2023-04-03T03:27:28;3.00;99.90
31133;DHT22;17779;50.942;4.026;2023-04-03T03:29:54;3.10;99.90
31133;DHT22;17779;50.942;4.026;2023-04-03T03:32:20;2.90;99.90
31133;DHT22;17779;50.942;4.026;2023-04-03T03:34:45;3.00;99.90
31133;DHT22;17779;50.942;4.026;2023-04-03T03:37:11;3.00;99.90
31133;DHT22;17779;50.942;4.026;2023-04-03T03:39:37;2.90;99.90
31133;DHT22;17779;50.942;4.026;2023-04-03T03:42:03;2.90;99.90
31133;DHT22;17779;50.942;4.026;2023-04-03T03:44:29;2.80;99.90
31133;DHT22;17779;50.942;4.026;2023-04-03T03:46:55;2.90;99.90
31133;DHT22;17779;50.942;4.026;2023-04-03T03:49:21;3.00;99.90
31133;DHT22;17779;50.942;4.026;2023-04-03T03:51:47;2.90;99.90
31133;DHT22;17779;50.942;4.026;2023-04-03T03:54:13;2.90;99.90
31133;DHT22;17779;50.942;4.026;2023-04-03T03:56:39;2.90;99.90
31133;DHT22;17779;50.942;4.026;2023-04-03T03:59:05;3.00;99.90
31133;DHT22;17779;50.942;4.026;2023-04-03T04:01:31;2.90;99.90
31133;DHT22;17779;50.942;4.026;2023-04-03T04:03:57;3.00;99.90
31133;DHT22;17779;50.942;4.026;2023-04-03T04:06:23;2.80;99.90
31133;DHT22;17779;50.942;4.026;2023-04-03T04:08:49;2.90;99.90
31133;DHT22;17779;50.942;4.026;2023-04-03T04:11:15;2.80;99.90
31133;DHT22;17779;50.942;4.026;2023-04-03T04:13:40;2.70;99.90
31133;DHT22;17779;50.942;4.026;2023-04-03T04:16:07;2.80;99.90
31133;DHT22;17779;50.942;4.026;2023-04-03T04:18:33;2.90;99.90
31133;DHT22;17779;50.942;4.026;2023-04-03T04:20:59;2.90;99.90
31133;DHT22;17779;50.942;4.026;2023-04-03T04:23:25;2.80;99.90
31133;DHT22;17779;50.942;4.026;2023-04-03T04:25:51;2.60;99.90
31133;DHT22;17779;50.942;4.026;2023-04-03T04:28:17;2.40;99.90
31133;DHT22;17779;50.942;4.026;2023-04-03T04:30:43;2.40;99.90
31133;DHT22;17779;50.942;4.026;2023-04-03T04:33:09;2.40;99.90
31133;DHT22;17779;50.942;4.026;2023-04-03T04:35:35;2.50;99.90
31133;DHT22;17779;50.942;4.026;2023-04-03T04:38:01;2.40;99.90
31133;DHT22;17779;50.942;4.026;2023-04-03T04:40:28;2.60;99.90
31133;DHT22;17779;50.942;4.026;2023-04-03T04:42:53;2.60;99.90
31133;DHT22;17779;50.942;4.026;2023-04-03T04:45:19;2.60;99.90
31133;DHT22;17779;50.942;4.026;2023-04-03T04:47:45;2.40;99.90
31133;DHT22;17779;50.942;4.026;2023-04-03T04:50:12;2.40;99.90
31133;DHT22;17779;50.942;4.026;2023-04-03T04:52:38;2.60;99.90
31133;DHT22;17779;50.942;4.026;2023-04-03T04:55:04;2.70;99.90
31133;DHT22;17779;50.942;4.026;2023-04-03T04:57:30;2.60;99.90
31133;DHT22;17779;50.942;4.026;2023-04-03T04:59:56;2.60;99.90
31133;DHT22;17779;50.942;4.026;2023-04-03T05:02:22;2.60;99.90
31133;DHT22;17779;50.942;4.026;2023-04-03T05:04:47;2.70;99.90
31133;DHT22;17779;50.942;4.026;2023-04-03T05:07:17;2.50;99.90
31133;DHT22;17779;50.942;4.026;2023-04-03T05:09:43;2.50;99.90
31133;DHT22;17779;50.942;4.026;2023-04-03T05:12:08;2.30;99.90
31133;DHT22;17779;50.942;4.026;2023-04-03T05:14:34;2.30;99.90
31133;DHT22;17779;50.942;4.026;2023-04-03T05:17:00;2.10;99.90
31133;DHT22;17779;50.942;4.026;2023-04-03T05:19:26;2.20;99.90
31133;DHT22;17779;50.942;4.026;2023-04-03T05:21:51;2.20;99.90
31133;DHT22;17779;50.942;4.026;2023-04-03T05:24:17;2.40;99.90
31133;DHT22;17779;50.942;4.026;2023-04-03T05:26:44;2.40;99.90
31133;DHT22;17779;50.942;4.026;2023-04-03T05:29:09;2.50;99.90
31133;DHT22;17779;50.942;4.026;2023-04-03T05:31:35;2.60;99.90
31133;DHT22;17779;50.942;4.026;2023-04-03T05:34:02;2.70;99.90
31133;DHT22;17779;50.942;4.026;2023-04-03T05:36:28;2.70;99.90
31133;DHT22;17779;50.942;4.026;2023-04-03T05:38:53;2.70;99.90
31133;DHT22;17779;50.942;4.026;2023-04-03T05:41:21;2.60;99.90
31133;DHT22;17779;50.942;4.026;2023-04-03T05:43:47;2.70;99.90
31133;DHT22;17779;50.942;4.026;2023-04-03T05:46:15;2.70;99.90
31133;DHT22;17779;50.942;4.026;2023-04-03T05:48:42;2.80;99.90
31133;DHT22;17779;50.942;4.026;2023-04-03T05:51:18;2.80;99.90
31133;DHT22;17779;50.942;4.026;2023-04-03T05:53:44;2.90;99.90
31133;DHT22;17779;50.942;4.026;2023-04-03T05:56:11;2.90;99.90
31133;DHT22;17779;50.942;4.026;2023-04-03T05:58:37;3.00;99.90
31133;DHT22;17779;50.942;4.026;2023-04-03T06:01:03;3.00;99.90
31133;DHT22;17779;50.942;4.026;2023-04-03T06:03:29;3.10;99.90
31133;DHT22;17779;50.942;4.026;2023-04-03T06:05:55;3.20;99.90
31133;DHT22;17779;50.942;4.026;2023-04-03T06:08:21;3.10;99.90
31133;DHT22;17779;50.942;4.026;2023-04-03T06:10:47;3.20;99.90
31133;DHT22;17779;50.942;4.026;2023-04-03T06:13:13;3.30;99.90
31133;DHT22;17779;50.942;4.026;2023-04-03T06:15:39;3.30;99.90
31133;DHT22;17779;50.942;4.026;2023-04-03T06:18:05;3.40;99.90
31133;DHT22;17779;50.942;4.026;2023-04-03T06:20:32;3.50;99.90
31133;DHT22;17779;50.942;4.026;2023-04-03T06:22:57;3.40;99.90
31133;DHT22;17779;50.942;4.026;2023-04-03T06:25:23;3.60;99.90
31133;DHT22;17779;50.942;4.026;2023-04-03T06:27:49;3.60;99.90
31133;DHT22;17779;50.942;4.026;2023-04-03T06:30:15;3.60;99.90
31133;DHT22;17779;50.942;4.026;2023-04-03T06:32:41;3.80;99.90
31133;DHT22;17779;50.942;4.026;2023-04-03T06:35:09;3.80;99.90
31133;DHT22;17779;50.942;4.026;2023-04-03T06:37:34;3.90;99.90
31133;DHT22;17779;50.942;4.026;2023-04-03T06:40:00;3.80;99.90
31133;DHT22;17779;50.942;4.026;2023-04-03T06:42:26;3.70;99.90
31133;DHT22;17779;50.942;4.026;2023-04-03T06:44:54;3.80;99.90
31133;DHT22;17779;50.942;4.026;2023-04-03T06:47:20;3.90;99.90
31133;DHT22;17779;50.942;4.026;2023-04-03T06:49:46;3.80;99.90
31133;DHT22;17779;50.942;4.026;2023-04-03T06:52:15;3.80;99.90
31133;DHT22;17779;50.942;4.026;2023-04-03T06:54:41;3.80;99.90
31133;DHT22;17779;50.942;4.026;2023-04-03T06:57:10;3.80;99.90
31133;DHT22;17779;50.942;4.026;2023-04-03T06:59:36;3.90;99.90
31133;DHT22;17779;50.942;4.026;2023-04-03T07:02:04;4.00;99.90
31133;DHT22;17779;50.942;4.026;2023-04-03T07:04:30;4.10;99.90
31133;DHT22;17779;50.942;4.026;2023-04-03T07:06:58;4.20;99.90
31133;DHT22;17779;50.942;4.026;2023-04-03T07:09:24;4.30;99.90
31133;DHT22;17779;50.942;4.026;2023-04-03T07:11:50;4.40;99.90
31133;DHT22;17779;50.942;4.026;2023-04-03T07:14:21;4.50;99.90
31133;DHT22;17779;50.942;4.026;2023-04-03T07:16:48;4.70;99.90
31133;DHT22;17779;50.942;4.026;2023-04-03T07:19:14;5.10;99.90
31133;DHT22;17779;50.942;4.026;2023-04-03T07:21:40;5.60;99.90
31133;DHT22;17779;50.942;4.026;2023-04-03T07:24:07;5.80;99.90
31133;DHT22;17779;50.942;4.026;2023-04-03T07:26:33;5.80;99.90
31133;DHT22;17779;50.942;4.026;2023-04-03T07:29:01;5.70;99.90
31133;DHT22;17779;50.942;4.026;2023-04-03T07:31:27;5.70;99.90
31133;DHT22;17779;50.942;4.026;2023-04-03T07:33:53;6.10;99.90
31133;DHT22;17779;50.942;4.026;2023-04-03T07:36:22;7.10;99.90
31133;DHT22;17779;50.942;4.026;2023-04-03T07:38:56;8.10;99.90
31133;DHT22;17779;50.942;4.026;2023-04-03T07:41:27;10.50;99.90
31133;DHT22;17779;50.942;4.026;2023-04-03T07:43:54;11.80;99.90
31133;DHT22;17779;50.942;4.026;2023-04-03T07:46:22;11.90;99.90
31133;DHT22;17779;50.942;4.026;2023-04-03T07:48:47;11.40;99.90
31133;DHT22;17779;50.942;4.026;2023-04-03T07:51:13;11.10;99.90
31133;DHT22;17779;50.942;4.026;2023-04-03T07:53:40;12.00;99.90
31133;DHT22;17779;50.942;4.026;2023-04-03T07:56:06;13.80;99.90
31133;DHT22;17779;50.942;4.026;2023-04-03T07:58:32;14.10;99.90
31133;DHT22;17779;50.942;4.026;2023-04-03T08:00:58;13.10;99.90
31133;DHT22;17779;50.942;4.026;2023-04-03T08:03:24;13.70;99.90
31133;DHT22;17779;50.942;4.026;2023-04-03T08:05:50;13.80;99.90
31133;DHT22;17779;50.942;4.026;2023-04-03T08:08:19;15.10;99.90
31133;DHT22;17779;50.942;4.026;2023-04-03T08:10:51;13.20;99.90
31133;DHT22;17779;50.942;4.026;2023-04-03T08:13:18;11.70;99.90
31133;DHT22;17779;50.942;4.026;2023-04-03T08:15:44;11.50;99.90
31133;DHT22;17779;50.942;4.026;2023-04-03T08:18:10;12.20;99.90
31133;DHT22;17779;50.942;4.026;2023-04-03T08:20:38;13.30;99.90
31133;DHT22;17779;50.942;4.026;2023-04-03T08:23:04;13.80;99.90
31133;DHT22;17779;50.942;4.026;2023-04-03T08:25:29;13.50;99.90
31133;DHT22;17779;50.942;4.026;2023-04-03T08:27:56;14.00;99.90
31133;DHT22;17779;50.942;4.026;2023-04-03T08:30:22;14.80;99.90
31133;DHT22;17779;50.942;4.026;2023-04-03T08:32:47;16.00;99.90
31133;DHT22;17779;50.942;4.026;2023-04-03T08:35:13;16.20;99.90
31133;DHT22;17779;50.942;4.026;2023-04-03T08:37:39;16.70;99.90
31133;DHT22;17779;50.942;4.026;2023-04-03T08:40:06;15.90;99.90
31133;DHT22;17779;50.942;4.026;2023-04-03T08:45:42;14.90;99.90
31133;DHT22;17779;50.942;4.026;2023-04-03T08:48:14;15.60;99.90
31133;DHT22;17779;50.942;4.026;2023-04-03T08:50:43;16.30;97.90
31133;DHT22;17779;50.942;4.026;2023-04-03T08:53:21;14.40;98.40
31133;DHT22;17779;50.942;4.026;2023-04-03T08:55:51;13.40;99.90
31133;DHT22;17779;50.942;4.026;2023-04-03T08:58:24;14.10;99.90
31133;DHT22;17779;50.942;4.026;2023-04-03T09:01:06;14.10;99.90
31133;DHT22;17779;50.942;4.026;2023-04-03T09:03:38;15.30;99.90
31133;DHT22;17779;50.942;4.026;2023-04-03T09:06:13;15.40;99.90
31133;DHT22;17779;50.942;4.026;2023-04-03T09:09:02;17.50;98.60
31133;DHT22;17779;50.942;4.026;2023-04-03T09:11:58;17.60;95.30
31133;DHT22;17779;50.942;4.026;2023-04-03T09:14:39;16.20;97.20
31133;DHT22;17779;50.942;4.026;2023-04-03T09:18:06;15.10;98.40
31133;DHT22;17779;50.942;4.026;2023-04-03T09:23:24;14.40;99.20
31133;DHT22;17779;50.942;4.026;2023-04-03T09:25:56;14.30;98.60
31133;DHT22;17779;50.942;4.026;2023-04-03T09:28:23;14.80;98.00
31133;DHT22;17779;50.942;4.026;2023-04-03T09:30:48;15.00;97.10
31133;DHT22;17779;50.942;4.026;2023-04-03T09:33:15;15.90;95.80
31133;DHT22;17779;50.942;4.026;2023-04-03T09:35:42;17.70;93.40
31133;DHT22;17779;50.942;4.026;2023-04-03T09:40:39;15.30;94.30
31133;DHT22;17779;50.942;4.026;2023-04-03T09:45:48;17.20;91.50
31133;DHT22;17779;50.942;4.026;2023-04-03T09:48:17;16.60;91.00
31133;DHT22;17779;50.942;4.026;2023-04-03T09:50:55;16.10;92.40
31133;DHT22;17779;50.942;4.026;2023-04-03T09:55:55;13.70;95.20
31133;DHT22;17779;50.942;4.026;2023-04-03T09:58:31;13.80;95.20
31133;DHT22;17779;50.942;4.026;2023-04-03T10:01:00;13.50;95.00
31133;DHT22;17779;50.942;4.026;2023-04-03T10:03:32;15.70;94.20
31133;DHT22;17779;50.942;4.026;2023-04-03T10:05:59;17.80;92.00
31133;DHT22;17779;50.942;4.026;2023-04-03T10:08:30;18.00;88.70
31133;DHT22;17779;50.942;4.026;2023-04-03T10:11:12;17.00;90.00
31133;DHT22;17779;50.942;4.026;2023-04-03T10:13:53;17.50;90.40
31133;DHT22;17779;50.942;4.026;2023-04-03T10:16:45;19.20;86.10
31133;DHT22;17779;50.942;4.026;2023-04-03T10:25:03;16.30;86.60
31133;DHT22;17779;50.942;4.026;2023-04-03T10:27:52;16.80;86.20
31133;DHT22;17779;50.942;4.026;2023-04-03T10:33:20;18.30;80.80
31133;DHT22;17779;50.942;4.026;2023-04-03T10:36:17;17.80;80.10
31133;DHT22;17779;50.942;4.026;2023-04-03T10:39:20;20.00;76.10
31133;DHT22;17779;50.942;4.026;2023-04-03T10:53:05;19.00;71.10
31133;DHT22;17779;50.942;4.026;2023-04-03T10:55:38;17.40;73.30
31133;DHT22;17779;50.942;4.026;2023-04-03T10:58:32;16.10;74.10
31133;DHT22;17779;50.942;4.026;2023-04-03T11:01:08;15.50;79.70
31133;DHT22;17779;50.942;4.026;2023-04-03T11:03:43;17.00;74.70
31133;DHT22;17779;50.942;4.026;2023-04-03T11:06:15;16.40;74.50
31133;DHT22;17779;50.942;4.026;2023-04-03T11:08:52;15.40;74.20
31133;DHT22;17779;50.942;4.026;2023-04-03T11:11:29;16.00;76.10
31133;DHT22;17779;50.942;4.026;2023-04-03T11:14:26;16.00;75.40
31133;DHT22;17779;50.942;4.026;2023-04-03T11:20:02;16.10;73.20
31133;DHT22;17779;50.942;4.026;2023-04-03T11:25:25;17.30;68.10
31133;DHT22;17779;50.942;4.026;2023-04-03T11:27:59;16.00;70.10
31133;DHT22;17779;50.942;4.026;2023-04-03T11:36:00;18.00;63.50
31133;DHT22;17779;50.942;4.026;2023-04-03T11:38:35;18.50;65.30
31133;DHT22;17779;50.942;4.026;2023-04-03T11:41:06;18.20;64.00
31133;DHT22;17779;50.942;4.026;2023-04-03T11:43:36;18.70;65.40
31133;DHT22;17779;50.942;4.026;2023-04-03T11:46:08;19.10;65.50
31133;DHT22;17779;50.942;4.026;2023-04-03T11:53:48;18.30;65.50
31133;DHT22;17779;50.942;4.026;2023-04-03T12:04:13;19.10;61.40
31133;DHT22;17779;50.942;4.026;2023-04-03T12:06:42;17.20;63.10
31133;DHT22;17779;50.942;4.026;2023-04-03T12:11:49;19.10;61.70
31133;DHT22;17779;50.942;4.026;2023-04-03T12:14:16;18.90;61.10
31133;DHT22;17779;50.942;4.026;2023-04-03T12:16:45;19.20;60.50
31133;DHT22;17779;50.942;4.026;2023-04-03T12:29:23;16.10;62.10
31133;DHT22;17779;50.942;4.026;2023-04-03T12:34:38;14.70;64.90
31133;DHT22;17779;50.942;4.026;2023-04-03T12:40:43;17.80;59.70
31133;DHT22;17779;50.942;4.026;2023-04-03T12:54:12;18.10;59.40
31133;DHT22;17779;50.942;4.026;2023-04-03T12:56:39;18.40;59.30
31133;DHT22;17779;50.942;4.026;2023-04-03T12:59:24;18.10;57.90
31133;DHT22;17779;50.942;4.026;2023-04-03T13:02:00;19.00;56.00
31133;DHT22;17779;50.942;4.026;2023-04-03T13:04:31;19.30;54.60
31133;DHT22;17779;50.942;4.026;2023-04-03T13:06:57;18.50;54.70
31133;DHT22;17779;50.942;4.026;2023-04-03T13:09:30;16.80;55.90
31133;DHT22;17779;50.942;4.026;2023-04-03T13:12:13;16.80;57.20
31133;DHT22;17779;50.942;4.026;2023-04-03T13:14:39;16.80;56.60
31133;DHT22;17779;50.942;4.026;2023-04-03T13:17:13;16.90;57.60
31133;DHT22;17779;50.942;4.026;2023-04-03T13:19:40;18.10;55.20
31133;DHT22;17779;50.942;4.026;2023-04-03T13:22:36;17.50;55.10
31133;DHT22;17779;50.942;4.026;2023-04-03T13:25:11;16.90;55.70
31133;DHT22;17779;50.942;4.026;2023-04-03T13:27:39;15.00;57.90
31133;DHT22;17779;50.942;4.026;2023-04-03T13:30:32;13.60;61.40
31133;DHT22;17779;50.942;4.026;2023-04-03T13:33:01;13.10;63.00
31133;DHT22;17779;50.942;4.026;2023-04-03T13:35:35;12.90;63.30
31133;DHT22;17779;50.942;4.026;2023-04-03T13:38:06;12.70;63.70
31133;DHT22;17779;50.942;4.026;2023-04-03T13:40:35;12.90;64.60
31133;DHT22;17779;50.942;4.026;2023-04-03T13:43:25;12.50;63.10
31133;DHT22;17779;50.942;4.026;2023-04-03T13:48:45;12.20;66.20
31133;DHT22;17779;50.942;4.026;2023-04-03T13:53:47;11.70;64.80
31133;DHT22;17779;50.942;4.026;2023-04-03T13:56:21;11.60;66.00
31133;DHT22;17779;50.942;4.026;2023-04-03T14:01:44;11.80;65.10
31133;DHT22;17779;50.942;4.026;2023-04-03T14:04:17;12.00;66.10
31133;DHT22;17779;50.942;4.026;2023-04-03T14:06:44;12.00;64.40
31133;DHT22;17779;50.942;4.026;2023-04-03T14:09:09;11.90;66.20
31133;DHT22;17779;50.942;4.026;2023-04-03T14:11:36;12.00;66.20
31133;DHT22;17779;50.942;4.026;2023-04-03T14:14:10;12.10;65.40
31133;DHT22;17779;50.942;4.026;2023-04-03T14:16:40;12.20;64.90
31133;DHT22;17779;50.942;4.026;2023-04-03T14:19:06;12.00;65.20
31133;DHT22;17779;50.942;4.026;2023-04-03T14:21:32;11.90;66.10
31133;DHT22;17779;50.942;4.026;2023-04-03T14:23:57;11.80;67.70
31133;DHT22;17779;50.942;4.026;2023-04-03T14:26:24;11.90;69.60
31133;DHT22;17779;50.942;4.026;2023-04-03T14:28:54;12.20;68.30
31133;DHT22;17779;50.942;4.026;2023-04-03T14:31:21;12.00;67.20
31133;DHT22;17779;50.942;4.026;2023-04-03T14:33:48;11.70;67.90
31133;DHT22;17779;50.942;4.026;2023-04-03T14:36:17;11.30;67.90
31133;DHT22;17779;50.942;4.026;2023-04-03T14:38:45;11.20;68.70
31133;DHT22;17779;50.942;4.026;2023-04-03T14:41:13;11.20;69.70
31133;DHT22;17779;50.942;4.026;2023-04-03T14:43:40;11.50;69.40
31133;DHT22;17779;50.942;4.026;2023-04-03T14:46:13;11.70;68.70
31133;DHT22;17779;50.942;4.026;2023-04-03T14:48:39;11.70;67.30
31133;DHT22;17779;50.942;4.026;2023-04-03T14:51:05;11.40;68.50
31133;DHT22;17779;50.942;4.026;2023-04-03T14:53:31;11.10;69.60
31133;DHT22;17779;50.942;4.026;2023-04-03T14:55:57;11.30;71.10
31133;DHT22;17779;50.942;4.026;2023-04-03T14:58:23;11.40;70.80
31133;DHT22;17779;50.942;4.026;2023-04-03T15:00:49;11.50;70.10
31133;DHT22;17779;50.942;4.026;2023-04-03T15:03:17;11.50;68.80
31133;DHT22;17779;50.942;4.026;2023-04-03T15:05:47;11.40;68.90
31133;DHT22;17779;50.942;4.026;2023-04-03T15:08:19;11.50;69.40
31133;DHT22;17779;50.942;4.026;2023-04-03T15:10:45;11.50;69.20
31133;DHT22;17779;50.942;4.026;2023-04-03T15:13:12;11.70;70.00
31133;DHT22;17779;50.942;4.026;2023-04-03T15:15:37;11.90;70.00
31133;DHT22;17779;50.942;4.026;2023-04-03T15:18:03;11.40;69.60
31133;DHT22;17779;50.942;4.026;2023-04-03T15:20:30;11.40;69.50
31133;DHT22;17779;50.942;4.026;2023-04-03T15:22:59;11.20;70.10
31133;DHT22;17779;50.942;4.026;2023-04-03T15:25:26;11.40;69.70
31133;DHT22;17779;50.942;4.026;2023-04-03T15:27:54;11.20;68.90
31133;DHT22;17779;50.942;4.026;2023-04-03T15:30:19;11.20;69.00
31133;DHT22;17779;50.942;4.026;2023-04-03T15:32:46;11.10;69.70
31133;DHT22;17779;50.942;4.026;2023-04-03T15:35:11;11.30;70.40
31133;DHT22;17779;50.942;4.026;2023-04-03T15:37:37;11.50;69.40
31133;DHT22;17779;50.942;4.026;2023-04-03T15:40:04;11.50;68.20
31133;DHT22;17779;50.942;4.026;2023-04-03T15:42:30;11.50;68.20
31133;DHT22;17779;50.942;4.026;2023-04-03T15:44:56;11.50;67.60
31133;DHT22;17779;50.942;4.026;2023-04-03T15:47:22;11.40;66.00
31133;DHT22;17779;50.942;4.026;2023-04-03T15:49:48;11.30;66.40
31133;DHT22;17779;50.942;4.026;2023-04-03T15:52:13;11.20;67.40
31133;DHT22;17779;50.942;4.026;2023-04-03T15:54:39;11.10;67.50
31133;DHT22;17779;50.942;4.026;2023-04-03T15:57:05;11.10;68.50
31133;DHT22;17779;50.942;4.026;2023-04-03T15:59:32;11.00;68.80
31133;DHT22;17779;50.942;4.026;2023-04-03T16:01:59;11.00;69.00
31133;DHT22;17779;50.942;4.026;2023-04-03T16:04:26;10.90;68.50
31133;DHT22;17779;50.942;4.026;2023-04-03T16:06:52;10.90;68.30
31133;DHT22;17779;50.942;4.026;2023-04-03T16:09:17;11.10;69.50
31133;DHT22;17779;50.942;4.026;2023-04-03T16:11:43;11.20;67.70
31133;DHT22;17779;50.942;4.026;2023-04-03T16:14:09;11.10;67.30
31133;DHT22;17779;50.942;4.026;2023-04-03T16:16:35;11.20;67.60
31133;DHT22;17779;50.942;4.026;2023-04-03T16:19:01;11.10;67.70
31133;DHT22;17779;50.942;4.026;2023-04-03T16:21:27;11.10;67.60
31133;DHT22;17779;50.942;4.026;2023-04-03T16:23:53;11.00;66.90
31133;DHT22;17779;50.942;4.026;2023-04-03T16:26:21;10.80;66.60
31133;DHT22;17779;50.942;4.026;2023-04-03T16:28:46;10.60;66.20
31133;DHT22;17779;50.942;4.026;2023-04-03T16:31:12;10.60;67.40
31133;DHT22;17779;50.942;4.026;2023-04-03T16:33:38;10.60;66.70
31133;DHT22;17779;50.942;4.026;2023-04-03T16:36:04;10.80;67.20
31133;DHT22;17779;50.942;4.026;2023-04-03T16:38:30;10.80;67.90
31133;DHT22;17779;50.942;4.026;2023-04-03T16:40:56;10.70;67.40
31133;DHT22;17779;50.942;4.026;2023-04-03T16:43:25;10.70;67.30
31133;DHT22;17779;50.942;4.026;2023-04-03T16:45:51;10.70;68.20
31133;DHT22;17779;50.942;4.026;2023-04-03T16:48:17;10.60;68.80
31133;DHT22;17779;50.942;4.026;2023-04-03T16:50:46;10.60;68.30
31133;DHT22;17779;50.942;4.026;2023-04-03T16:53:13;10.50;68.50
31133;DHT22;17779;50.942;4.026;2023-04-03T16:55:39;10.50;68.70
31133;DHT22;17779;50.942;4.026;2023-04-03T16:58:05;10.50;68.80
31133;DHT22;17779;50.942;4.026;2023-04-03T17:00:31;10.60;68.30
31133;DHT22;17779;50.942;4.026;2023-04-03T17:02:57;10.50;68.70
31133;DHT22;17779;50.942;4.026;2023-04-03T17:05:23;10.50;68.70
31133;DHT22;17779;50.942;4.026;2023-04-03T17:07:50;10.60;69.20
31133;DHT22;17779;50.942;4.026;2023-04-03T17:10:15;10.50;70.00
31133;DHT22;17779;50.942;4.026;2023-04-03T17:12:41;10.40;69.50
31133;DHT22;17779;50.942;4.026;2023-04-03T17:15:09;10.30;69.70
31133;DHT22;17779;50.942;4.026;2023-04-03T17:17:36;10.30;70.50
31133;DHT22;17779;50.942;4.026;2023-04-03T17:20:02;10.30;71.10
31133;DHT22;17779;50.942;4.026;2023-04-03T17:22:29;10.20;71.80
31133;DHT22;17779;50.942;4.026;2023-04-03T17:24:55;10.20;71.80
31133;DHT22;17779;50.942;4.026;2023-04-03T17:27:22;10.20;72.10